Silverwood, Michigan
Current Conditions -  °F | °C
As of 4:35 AM on Saturday 25 Oct 2014 (Local Time) from KCFS Reporting Station
Haze Haze  
Wind Chill: 39°   Ceiling: Unl
Heat Index: 42°   Visibility: 1.5mi
Dew Point: 42°   Wind: 5mph
Humidity: 100%   Direction: 190°S
Pressure: 29.84"   Gusts: NA
Location:  43.32°N, 83.25°W
Report Text: KCFS 250835Z AUTO 19004KT 1 1/2SM BR SCT090 06/06 A2984 RMK AO2 T00560056
Loading
Personal Weather Stations






























Interactive Weather Map
Tropical Storm Tracking
New forecast layout! Learn more

10-Day Weather Forecast

Advertisements
Track Severe Weather on mobile